Costa Mesa, CA (92626)

4:51 AM PDT on September 23, 2014 (GMT -0700)
Upper Newport Bay - W6IT | Change Station
CLOSE
Current Station
Personal Weather Station
Location: Newport Beach, CA
Elevation: 75 ft
Nearby Weather Stations

Elev 75 ft 33.65 °N, 117.90 °W | Updated 10 seconds ago

Clear
Clear
61.8 °F
Feels Like 61.8 °F
N
0.0
Wind Variable Wind from WSW
Gusts 1.0 mph

Today
High -- | Low -- °F
--% Chance of Precip.
Yesterday
High -- | Low -- °F
Precip. -- in
6:40 AM 6:46 PM
Waning Crescent, 1% visible
Pressure 29.94 in
Visibility 10.0 miles
Clouds Clear
Dew Point 61 °F
Humidity 97%
Rainfall 0.00 in
Snow Depth 0 in , 0 in , 1 in
UV 0 out of 12
Pollen 5.70 out of 12
Ozone Good
Flu Activity Not available.
METAR KSNA 231053Z AUTO 00000KT 10SM CLR 21/16 A2994 RMK AO2 SLP136 T02060161 TSNO

More Conditions Fewer Conditions

Pressure 29.94 in
Visibility 10.0 miles
Clouds Clear
Dew Point 61 °F
Humidity 97%
Rainfall 0.00 in
Snow Depth 0 in , 0 in , 1 in
UV 0 out of 12
Pollen 5.70 out of 12
Ozone Good
Flu Activity Not available.
METAR KSNA 231053Z AUTO 00000KT 10SM CLR 21/16 A2994 RMK AO2 SLP136 T02060161 TSNO

More Conditions Fewer Conditions

10-Day Weather Forecast

Almanac

Astronomy

Sep. 23, 2014 Rise Set
Actual Time 6:40 AM PDT 6:46 PM PDT
Civil Twilight 6:15 AM PDT 7:11 PM PDT
Nautical Twilight 5:46 AM PDT 7:40 PM PDT
Astronomical Twilight 5:17 AM PDT 8:09 PM PDT
Moon 6:09 AM PDT 6:29 PM PDT
Length of Visible Light 12h 56m
Length of Day
12h 06m
Tomorrow will be 2m 4s shorter.
Waning Crescent, 1% of the Moon is Illuminated
Today
Waning Crescent
Sep 24
New
Oct 1
First Quarter
Oct 8
Full
Oct 15
Last Quarter

Today's Extremes

State Highs State Lows

Community

WunderPhotos

Upload Photos

1,755,644 photos uploaded!

WunderBlogs® & News

By Dr. Jeff Masters
Director of Meteorology, Weather Underground
By Kari Strenfel
Meteorologist, Weather Underground
By Christopher C. Burt
Weather Historian, Weather Underground
September 23, 2014
September 23, 2014
September 23, 2014

Nearby

Air Quality

  Air Quality AQ Index Pollutant
Yesterday Good
OZONE
Current Good
OZONE
Tuesday Good
PM10
Tuesday Good
OZONE
Tuesday Good
CO
Tuesday Good
NO2

Snow Depth

Station Depth Elevation
Rubicon #2 0 in 7500 ft
Spratt Creek 1 in 6200 ft
Independence Creek 0 in 6500 ft
Burnside Lake 1 in 8139 ft
Summit Meadow 1 in 9122 ft

Earthquake Activity

City Distance Mag. Time & Date
Big Bear Lake, California 65 miles 2.5 7:26 AM PDT
2014-09-22
Borrego Springs, California 92 miles 2.6 7:34 AM PDT
2014-09-21
Minimum magnitude displayed is 2.5.

Coastal Water Temperatures

Place Temperature
Santa Monica Pier 70.0 °F
Los Angeles, CA 66.9 °F
La Jolla, CA 71.1 °F

Nearby Weather Stations